TimeEDT,TemperatureF,Dew PointF,Humidity,Sea Level PressureIn,VisibilityMPH,Wind Direction,Wind SpeedMPH,Gust SpeedMPH,PrecipitationIn,Events,Conditions,WindDirDegrees,DateUTC
12:00 AM,61.3,50.7,68,-9999,-9999.0,NE,15.0,25.3,N/A,,Unknown,50,2012-10-30 04:00:00
1:00 AM,62.1,50.7,66,-9999,-9999.0,ENE,16.1,29.9,N/A,,Unknown,60,2012-10-30 05:00:00
2:00 AM,62,51,59,,,ENE,16.1,,,,,70,2012-10-30 06:00:00
4:00 AM,59.5,52.7,78,-9999,-9999.0,ENE,16.1,28.8,N/A,,Unknown,60,2012-10-30 08:00:00
5:00 AM,60.6,51.8,73,-9999,-9999.0,ENE,15.0,25.3,N/A,,Unknown,70,2012-10-30 09:00:00
6:00 AM,60.3,51.8,74,-9999,-9999.0,ENE,11.5,24.2,N/A,,Unknown,60,2012-10-30 10:00:00
7:00 AM,60.3,52.0,74,-9999,-9999.0,ENE,10.4,-,N/A,,Unknown,60,2012-10-30 11:00:00
8:00 AM,60,53,71,,,ENE,10.4,,,,,70,2012-10-30 12:00:00
8:00 AM,60.3,53.1,77,-9999,-9999.0,ENE,10.4,19.6,N/A,,Unknown,70,2012-10-30 12:00:00
9:00 AM,60.8,53.8,78,-9999,-9999.0,ENE,9.2,-,N/A,,Unknown,70,2012-10-30 13:00:00
10:00 AM,61.0,56.8,86,-9999,-9999.0,ENE,8.1,-,0.07,,Unknown,70,2012-10-30 14:00:00
11:00 AM,62.6,56.8,81,-9999,-9999.0,ENE,8.1,-,N/A,,Unknown,70,2012-10-30 15:00:00
12:00 PM,62.2,59.0,89,-9999,-9999.0,WNW,1.2,-,0.05,,Unknown,300,2012-10-30 16:00:00
1:00 PM,66.7,58.8,76,-9999,-9999.0,ESE,8.1,-,0.01,,Unknown,120,2012-10-30 17:00:00
2:00 PM,68,55,55,,,ESE,10.4,,,,,110,2012-10-30 18:00:00
2:00 PM,68.0,55.4,64,-9999,-9999.0,ESE,10.4,18.4,0.01,,Unknown,110,2012-10-30 18:00:00
3:00 PM,69.8,54.1,57,-9999,-9999.0,SE,12.7,23.0,N/A,,Unknown,130,2012-10-30 19:00:00
4:00 PM,70.2,49.3,47,-9999,-9999.0,ESE,11.5,20.7,N/A,,Unknown,120,2012-10-30 20:00:00
5:00 PM,68.0,49.1,51,-9999,-9999.0,SE,11.5,20.7,0.01,,Unknown,130,2012-10-30 21:00:00
6:00 PM,64.8,49.5,58,-9999,-9999.0,ESE,8.1,-,N/A,,Unknown,110,2012-10-30 22:00:00
7:00 PM,64.0,52.9,67,-9999,-9999.0,East,6.9,-,N/A,,Unknown,80,2012-10-30 23:00:00
8:00 PM,64,53,58,,,East,6.9,,,,,90,2012-10-31 00:00:00
8:00 PM,64.4,52.9,66,-9999,-9999.0,East,6.9,-,N/A,,Unknown,90,2012-10-31 00:00:00
9:00 PM,63.1,55.2,75,-9999,-9999.0,East,6.9,-,N/A,,Unknown,80,2012-10-31 01:00:00
10:00 PM,59.7,56.5,89,-9999,-9999.0,ENE,5.8,-,0.07,,Unknown,60,2012-10-31 02:00:00
11:00 PM,60.1,56.5,88,-9999,-9999.0,East,5.8,-,N/A,,Unknown,80,2012-10-31 03:00:00